Iver Accord — ZDNR3 — position and weather

sailwx.info

Track history (hours):
 
Tides and Currents Weather Stations Pressure Air Temp Water Temp Dewpoint Dewpoint Depression Visibility Wind Speed Wind Dir Waves Ship Positions

Iver Accord

Last reported at 2017-Sep-20 19:10 UTC. Time now 2017-Sep-20 23:33 UTC.
Position N 35°60' W 005°14'.

Length 99 m; draft 5 m.

Type: Tanker. MMSI: 236630000.

Date/timePositionNaut miles runAvg speedWind from/ knotsBaromVisibWave heightAir tempDewpointWater temp
2017-Sep-20 19:10N 35°60' W 005°14'210.7
2017-Sep-20 19:01N 35°60' W 005°16'611.7
2017-Sep-20 18:30N 35°58' W 005°23'  
2017-Sep-14 15:34N 34°00' W 012°18'110.1
2017-Sep-14 15:30N 34°01' W 012°18'3110.3
2017-Sep-14 12:30N 34°12' W 011°43'184 9.9
2017-Sep-13 17:54N 35°19' W 008°15'2410.2
2017-Sep-13 15:35N 35°28' W 007°48'110.2
2017-Sep-13 15:28N 35°29' W 007°47'710.7
2017-Sep-13 14:50N 35°31' W 007°39'410.5
2017-Sep-13 14:30N 35°32' W 007°35'1110.5
2017-Sep-13 13:28N 35°35' W 007°22'510.6
2017-Sep-13 13:00N 35°37' W 007°17'510.3
2017-Sep-13 12:30N 35°39' W 007°11'2210.7
2017-Sep-13 10:25N 35°47' W 006°45'5710.4
2017-Sep-13 04:55N 35°57' W 005°36'410.8
2017-Sep-13 04:30N 35°59' W 005°30'510.0
2017-Sep-13 04:00N 36°00' W 005°24'5 9.7
2017-Sep-13 03:30N 36°02' W 005°19'5 9.5
2017-Sep-13 03:00N 36°03' W 005°13'217 9.3
2017-Sep-12 03:41N 37°29' W 001°04'210.3
2017-Sep-12 03:30N 37°30' W 001°03'  
Track history (hours):
 
Tides and Currents Weather Stations Pressure Air Temp Water Temp Dewpoint Dewpoint Depression Visibility Wind Speed Wind Dir Waves Ship Positions

Iver Accord

Last reported at 2017-Sep-20 19:10 UTC. Time now 2017-Sep-20 23:33 UTC.
Position N 35°60' W 005°14'.

Length 99 m; draft 5 m.

Type: Tanker. MMSI: 236630000.

Date/timePositionNaut miles runAvg speedWind from/ knotsBaromVisibWave heightAir tempDewpointWater temp
2017-Sep-20 19:10N 35°60' W 005°14'210.7
2017-Sep-20 19:01N 35°60' W 005°16'611.7
2017-Sep-20 18:30N 35°58' W 005°23'  
2017-Sep-14 15:34N 34°00' W 012°18'110.1
2017-Sep-14 15:30N 34°01' W 012°18'3110.3
2017-Sep-14 12:30N 34°12' W 011°43'184 9.9
2017-Sep-13 17:54N 35°19' W 008°15'2410.2
2017-Sep-13 15:35N 35°28' W 007°48'110.2
2017-Sep-13 15:28N 35°29' W 007°47'710.7
2017-Sep-13 14:50N 35°31' W 007°39'410.5
2017-Sep-13 14:30N 35°32' W 007°35'1110.5
2017-Sep-13 13:28N 35°35' W 007°22'510.6
2017-Sep-13 13:00N 35°37' W 007°17'510.3
2017-Sep-13 12:30N 35°39' W 007°11'2210.7
2017-Sep-13 10:25N 35°47' W 006°45'5710.4
2017-Sep-13 04:55N 35°57' W 005°36'410.8
2017-Sep-13 04:30N 35°59' W 005°30'510.0
2017-Sep-13 04:00N 36°00' W 005°24'5 9.7
2017-Sep-13 03:30N 36°02' W 005°19'5 9.5
2017-Sep-13 03:00N 36°03' W 005°13'217 9.3
2017-Sep-12 03:41N 37°29' W 001°04'210.3
2017-Sep-12 03:30N 37°30' W 001°03'  

Dump ship's entire track history